createdAt,value
2024-05-09T00:00:56.505Z,101001.09
2024-05-09T00:01:57.522Z,101006.41
2024-05-09T00:02:58.946Z,100997.94
2024-05-09T00:03:59.876Z,100997.31
2024-05-09T00:05:00.949Z,101005.38
2024-05-09T00:06:02.155Z,101007.31
2024-05-09T00:07:03.214Z,101008.78
2024-05-09T00:08:04.972Z,101009.22
2024-05-09T00:09:05.872Z,101007.97
2024-05-09T00:10:11.686Z,101016.50
2024-05-09T00:11:19.503Z,101018.66
2024-05-09T00:12:20.550Z,101004.81
2024-05-09T00:13:21.526Z,101010.56
2024-05-09T00:14:22.489Z,101012.28
2024-05-09T00:15:23.363Z,101004.19
2024-05-09T00:16:24.274Z,101006.09
2024-05-09T00:17:25.281Z,101012.50
2024-05-09T00:18:26.378Z,101019.94
2024-05-09T00:19:27.557Z,101008.25
2024-05-09T00:20:36.452Z,101009.09
2024-05-09T00:21:42.147Z,101013.56
2024-05-09T00:22:43.015Z,101011.03
2024-05-09T00:23:43.949Z,101002.50
2024-05-09T00:24:44.799Z,101006.09
2024-05-09T00:25:48.351Z,101003.56
2024-05-09T00:26:49.231Z,101002.94
2024-05-09T00:27:50.068Z,101005.47
2024-05-09T00:28:51.069Z,101001.03
2024-05-09T00:29:52.016Z,101002.09
2024-05-09T00:30:52.849Z,101001.03
2024-05-09T00:31:53.761Z,100993.56
2024-05-09T00:32:54.754Z,100999.31
2024-05-09T00:33:55.815Z,100996.56
2024-05-09T00:34:56.876Z,100989.31
2024-05-09T00:35:57.777Z,100989.53
2024-05-09T00:36:58.611Z,100997.84
2024-05-09T00:37:59.772Z,100990.63
2024-05-09T00:39:00.809Z,100994.00
2024-05-09T00:40:01.675Z,100995.31
2024-05-09T00:41:02.584Z,100986.78
2024-05-09T00:42:03.664Z,100986.38
2024-05-09T00:43:07.121Z,100991.25
2024-05-09T00:44:08.128Z,100995.06
2024-05-09T00:45:09.030Z,100992.09
2024-05-09T00:46:09.884Z,100990.16
2024-05-09T00:47:10.846Z,100991.00
2024-05-09T00:48:14.048Z,100994.84
2024-05-09T00:49:17.288Z,100985.25
2024-05-09T00:50:23.032Z,100984.63
2024-05-09T00:51:30.687Z,100980.38
2024-05-09T00:52:31.578Z,100983.38
2024-05-09T00:53:32.659Z,100979.75
2024-05-09T00:54:33.564Z,100977.22
2024-05-09T00:55:34.560Z,100982.13
2024-05-09T00:56:35.485Z,100984.06
2024-05-09T00:57:36.373Z,100981.28
2024-05-09T00:58:37.229Z,100990.44
2024-05-09T00:59:38.195Z,100981.28
2024-05-09T01:00:41.023Z,100983.44
2024-05-09T01:01:42.698Z,100985.34
2024-05-09T01:02:43.814Z,100985.56
2024-05-09T01:03:46.487Z,100987.09
2024-05-09T01:04:49.231Z,100985.16
2024-05-09T01:05:50.991Z,100986.88
2024-05-09T01:06:52.076Z,100996.25
2024-05-09T01:07:52.962Z,100988.16
2024-05-09T01:08:53.828Z,100999.22
2024-05-09T01:09:54.664Z,100994.53
2024-05-09T01:10:55.634Z,100989.47
2024-05-09T01:11:56.638Z,100998.81
2024-05-09T01:12:57.502Z,100988.59
2024-05-09T01:13:58.375Z,101002.03
2024-05-09T01:14:59.226Z,100986.72
2024-05-09T01:16:00.100Z,100992.03
2024-05-09T01:17:00.988Z,100997.13
2024-05-09T01:18:05.762Z,100998.44
2024-05-09T01:19:09.434Z,100987.78
2024-05-09T01:20:12.998Z,100987.78
2024-05-09T01:21:20.736Z,100989.06
2024-05-09T01:22:21.616Z,100996.94
2024-05-09T01:23:22.553Z,100989.94
2024-05-09T01:24:23.439Z,100995.06
2024-05-09T01:25:24.268Z,100992.31
2024-05-09T01:26:25.205Z,100987.00
2024-05-09T01:27:26.105Z,100988.69
2024-05-09T01:28:26.934Z,100983.59
2024-05-09T01:29:27.865Z,100987.22
2024-05-09T01:30:34.434Z,100995.50
2024-05-09T01:31:37.646Z,100988.06
2024-05-09T01:32:38.639Z,100985.28
2024-05-09T01:33:39.910Z,100991.69
2024-05-09T01:34:40.899Z,100995.50
2024-05-09T01:35:42.773Z,100997.88
2024-05-09T01:36:44.090Z,101001.28
2024-05-09T01:37:45.035Z,100999.16
2024-05-09T01:38:45.920Z,101006.19
2024-05-09T01:39:46.776Z,100999.78
2024-05-09T01:40:47.727Z,101005.78
2024-05-09T01:41:48.566Z,101009.38
2024-05-09T01:42:49.397Z,101005.78
2024-05-09T01:43:50.329Z,101003.44
2024-05-09T01:44:51.163Z,101001.94
2024-05-09T01:45:52.001Z,101002.16
2024-05-09T01:46:52.881Z,101000.22
2024-05-09T01:47:53.904Z,101006.84
2024-05-09T01:48:55.035Z,100999.59
2024-05-09T01:49:56.044Z,101005.38
2024-05-09T01:50:56.929Z,101005.59
2024-05-09T01:51:57.835Z,100993.66
2024-05-09T01:52:58.711Z,101001.75
2024-05-09T01:53:59.576Z,100999.19
2024-05-09T01:55:03.518Z,100992.19
2024-05-09T01:56:07.217Z,100998.78
2024-05-09T01:57:08.089Z,100994.09
2024-05-09T01:58:09.103Z,100992.19
2024-05-09T01:59:10.071Z,101004.97
2024-05-09T02:01:13.738Z,100998.56
2024-05-09T02:02:14.917Z,100991.34
2024-05-09T02:03:17.668Z,100997.50
2024-05-09T02:04:19.300Z,100992.81
2024-05-09T02:05:20.431Z,100991.53
2024-05-09T02:06:21.290Z,100992.81
2024-05-09T02:07:22.174Z,100985.38
2024-05-09T02:08:23.091Z,100983.66
2024-05-09T02:09:24.688Z,100986.44
2024-05-09T02:10:32.058Z,100988.34
2024-05-09T02:11:41.421Z,100988.34
2024-05-09T02:12:42.341Z,100984.75
2024-05-09T02:13:43.251Z,100983.88
2024-05-09T02:14:44.140Z,100980.28
2024-05-09T02:15:45.146Z,100988.56
2024-05-09T02:16:46.762Z,100981.75
2024-05-09T02:17:47.888Z,100981.97
2024-05-09T02:18:49.041Z,100971.56
2024-05-09T02:19:50.055Z,100975.63
2024-05-09T02:20:50.938Z,100982.41
2024-05-09T02:21:51.831Z,100976.88
2024-05-09T02:22:52.892Z,100966.47
2024-05-09T02:23:53.760Z,100973.72
2024-05-09T02:24:54.588Z,100974.16
2024-05-09T02:25:55.487Z,100968.41
2024-05-09T02:26:56.373Z,100974.38
2024-05-09T02:27:57.258Z,100976.06
2024-05-09T02:28:58.563Z,100979.91
2024-05-09T02:29:59.406Z,100971.38
2024-05-09T02:31:00.294Z,100978.84
2024-05-09T02:32:01.340Z,100970.53
2024-05-09T02:33:02.395Z,100974.38
2024-05-09T02:34:03.594Z,100973.31
2024-05-09T02:35:04.892Z,100973.31
2024-05-09T02:36:06.061Z,100970.13
2024-05-09T02:37:06.954Z,100970.97
2024-05-09T02:38:10.980Z,100976.72
2024-05-09T02:39:11.999Z,100975.88
2024-05-09T02:40:14.986Z,100971.41
2024-05-09T02:41:19.220Z,100970.34
2024-05-09T02:42:20.070Z,100970.34
2024-05-09T02:43:20.907Z,100987.16
2024-05-09T02:44:21.774Z,100981.41
2024-05-09T02:45:23.785Z,100979.28
2024-05-09T02:46:24.624Z,100981.41
2024-05-09T02:47:25.613Z,100986.94
2024-05-09T02:48:26.769Z,100989.72
2024-05-09T02:49:27.835Z,100991.41
2024-05-09T02:50:34.335Z,100989.09
2024-05-09T02:51:39.513Z,100994.63
2024-05-09T02:52:40.342Z,100984.63
2024-05-09T02:53:41.247Z,100995.69
2024-05-09T02:54:42.131Z,100990.78
2024-05-09T02:55:43.430Z,100985.47
2024-05-09T02:56:44.377Z,100990.78
2024-05-09T02:57:45.220Z,100997.38
2024-05-09T02:58:46.081Z,100993.75
2024-05-09T02:59:46.936Z,100992.28
2024-05-09T03:00:47.811Z,100992.28
2024-05-09T03:01:48.790Z,100991.44
2024-05-09T03:02:49.858Z,100984.84
2024-05-09T03:03:51.274Z,100996.75
2024-05-09T03:04:52.532Z,100995.06
2024-05-09T03:05:53.430Z,100999.50
2024-05-09T03:06:54.268Z,100996.13
2024-05-09T03:07:55.159Z,101001.22
2024-05-09T03:08:56.012Z,101002.28
2024-05-09T03:09:56.848Z,101001.44
2024-05-09T03:10:57.717Z,100993.34
2024-05-09T03:11:58.783Z,100998.88
2024-05-09T03:12:59.697Z,101005.25
2024-05-09T03:14:00.643Z,101001.66
2024-05-09T03:15:01.517Z,101004.19
2024-05-09T03:16:02.392Z,101004.19
2024-05-09T03:17:03.314Z,101008.03
2024-05-09T03:18:04.952Z,101008.25
2024-05-09T03:19:06.081Z,101008.47
2024-05-09T03:20:16.996Z,101011.22
2024-05-09T03:21:21.480Z,101007.63
2024-05-09T03:22:22.327Z,101005.91
2024-05-09T03:23:23.191Z,101013.16
2024-05-09T03:24:24.056Z,101009.97
2024-05-09T03:25:24.955Z,101001.47
2024-05-09T03:26:25.923Z,101007.84
2024-05-09T03:27:26.866Z,101005.91
2024-05-09T03:28:27.710Z,100994.22
2024-05-09T03:29:28.659Z,101008.69
2024-05-09T03:30:38.107Z,101007.00
2024-05-09T03:31:42.606Z,101002.94
2024-05-09T03:32:43.640Z,100999.53
2024-05-09T03:33:44.800Z,101004.00
2024-05-09T03:34:45.850Z,101001.47
2024-05-09T03:35:47.374Z,101006.13
2024-05-09T03:36:48.387Z,101009.75
2024-05-09T03:37:49.231Z,101010.38
2024-05-09T03:38:50.090Z,101011.44
2024-05-09T03:39:51.220Z,101011.44
2024-05-09T03:40:52.108Z,101009.75
2024-05-09T03:41:52.971Z,101010.19
2024-05-09T03:42:53.796Z,101009.97
2024-05-09T03:43:54.663Z,101006.78
2024-05-09T03:44:56.829Z,101014.88
2024-05-09T03:45:57.692Z,101015.09
2024-05-09T03:46:58.574Z,101014.03
2024-05-09T03:47:59.670Z,101011.03
2024-05-09T03:49:00.753Z,101009.34
2024-05-09T03:50:01.857Z,101015.50
2024-05-09T03:51:03.181Z,101007.44
2024-05-09T03:52:04.457Z,101012.97
2024-05-09T03:53:09.498Z,101018.50
2024-05-09T03:54:10.373Z,101019.56
2024-05-09T03:55:11.221Z,101015.31
2024-05-09T03:56:12.112Z,101022.31
2024-05-09T03:57:13.052Z,101015.09
2024-05-09T03:58:13.896Z,101025.31
2024-05-09T03:59:14.752Z,101018.06
2024-05-09T04:00:22.101Z,101017.19
2024-05-09T04:01:28.858Z,101013.78
2024-05-09T04:02:29.852Z,101022.53
2024-05-09T04:03:30.887Z,101021.88
2024-05-09T04:04:32.014Z,101022.53
2024-05-09T04:05:33.191Z,101017.84
2024-05-09T04:06:34.143Z,101022.31
2024-05-09T04:07:36.486Z,101022.31
2024-05-09T04:08:37.521Z,101015.28
2024-05-09T04:09:38.478Z,101029.34
2024-05-09T04:10:39.851Z,101024.03
2024-05-09T04:11:40.839Z,101027.19
2024-05-09T04:12:45.007Z,101030.81
2024-05-09T04:13:45.897Z,101025.72
2024-05-09T04:14:46.777Z,101028.91
2024-05-09T04:15:47.624Z,101032.72
2024-05-09T04:16:48.491Z,101035.06
2024-05-09T04:17:50.362Z,101034.84
2024-05-09T04:18:51.418Z,101035.91
2024-05-09T04:19:52.305Z,101023.78
2024-05-09T04:20:53.292Z,101036.53
2024-05-09T04:21:54.132Z,101033.78
2024-05-09T04:22:55.007Z,101035.47
2024-05-09T04:23:55.855Z,101036.31
2024-05-09T04:24:56.727Z,101032.25
2024-05-09T04:25:57.602Z,101033.34
2024-05-09T04:26:58.466Z,101038.44
2024-05-09T04:27:59.290Z,101038.88
2024-05-09T04:29:00.163Z,101046.09
2024-05-09T04:30:01.022Z,101043.09
2024-05-09T04:31:01.869Z,101041.41
2024-05-09T04:32:03.956Z,101048.63
2024-05-09T04:33:05.237Z,101045.03
2024-05-09T04:34:06.536Z,101048.22
2024-05-09T04:35:07.564Z,101047.34
2024-05-09T04:36:08.497Z,101048.44
2024-05-09T04:37:09.351Z,101055.44
2024-05-09T04:38:13.843Z,101048.84
2024-05-09T04:39:15.310Z,101047.13
2024-05-09T04:40:24.296Z,101050.75
2024-05-09T04:41:32.297Z,101048.84
2024-05-09T04:42:33.180Z,101055.00
2024-05-09T04:43:34.225Z,101051.38
2024-05-09T04:44:35.264Z,101051.38
2024-05-09T04:45:36.128Z,101059.25
2024-05-09T04:46:38.672Z,101054.34
2024-05-09T04:47:39.642Z,101061.34
2024-05-09T04:48:40.707Z,101054.13
2024-05-09T04:49:41.776Z,101062.19
2024-05-09T04:50:42.803Z,101055.59
2024-05-09T04:51:43.774Z,101054.97
2024-05-09T04:52:44.669Z,101063.91
2024-05-09T04:53:45.600Z,101067.75
2024-05-09T04:54:46.455Z,101065.38
2024-05-09T04:55:47.446Z,101064.75
2024-05-09T04:56:48.391Z,101063.69
2024-05-09T04:57:54.638Z,101069.84
2024-05-09T04:58:55.508Z,101068.19
2024-05-09T04:59:56.900Z,101064.56
2024-05-09T05:00:57.738Z,101071.13
2024-05-09T05:01:58.710Z,101069.22
2024-05-09T05:02:59.927Z,101071.13
2024-05-09T05:04:01.052Z,101074.09
2024-05-09T05:05:02.519Z,101074.50
2024-05-09T05:06:03.597Z,101080.66
2024-05-09T05:07:04.706Z,101084.91
2024-05-09T05:08:10.457Z,101073.63
2024-05-09T05:09:11.330Z,101081.50
2024-05-09T05:10:17.900Z,101075.09
2024-05-09T05:11:26.048Z,101073.81
2024-05-09T05:12:45.666Z,101077.22
2024-05-09T05:13:46.507Z,101078.69
2024-05-09T05:14:47.343Z,101077.63
2024-05-09T05:15:49.230Z,101072.72
2024-05-09T05:16:50.175Z,101080.56
2024-05-09T05:17:51.262Z,101083.97
2024-05-09T05:18:52.382Z,101078.66
2024-05-09T05:19:53.505Z,101086.75
2024-05-09T05:20:54.519Z,101087.59
2024-05-09T05:21:55.387Z,101085.66
2024-05-09T05:22:56.248Z,101086.75
2024-05-09T05:23:57.096Z,101089.50
2024-05-09T05:24:57.966Z,101088.00
2024-05-09T05:25:58.846Z,101093.31
2024-05-09T05:26:59.690Z,101091.84
2024-05-09T05:28:03.555Z,101088.63
2024-05-09T05:29:04.510Z,101091.63
2024-05-09T05:30:07.535Z,101095.88
2024-05-09T05:31:10.378Z,101093.72
2024-05-09T05:32:11.483Z,101093.72
2024-05-09T05:33:13.172Z,101094.56
2024-05-09T05:34:14.304Z,101095.19
2024-05-09T05:35:15.167Z,101091.59
2024-05-09T05:36:15.998Z,101086.25
2024-05-09T05:37:16.824Z,101087.53
2024-05-09T05:38:17.974Z,101090.69
2024-05-09T05:39:18.936Z,101091.31
2024-05-09T05:40:28.170Z,101085.16
2024-05-09T05:41:36.329Z,101088.56
2024-05-09T05:42:37.180Z,101093.03
2024-05-09T05:43:38.052Z,101094.72
2024-05-09T05:44:38.906Z,101090.25
2024-05-09T05:45:39.790Z,101096.81
2024-05-09T05:46:40.664Z,101091.91
2024-05-09T05:47:42.146Z,101096.16
2024-05-09T05:48:43.303Z,101095.09
2024-05-09T05:49:44.304Z,101086.59
2024-05-09T05:50:45.291Z,101096.78
2024-05-09T05:51:46.201Z,101089.31
2024-05-09T05:52:47.122Z,101103.56
2024-05-09T05:53:48.084Z,101101.44
2024-05-09T05:54:50.593Z,101108.66
2024-05-09T05:55:51.536Z,101100.75
2024-05-09T05:56:52.429Z,101097.53
2024-05-09T05:57:53.288Z,101095.44
2024-05-09T05:58:54.200Z,101102.91
2024-05-09T05:59:55.039Z,101101.81
2024-05-09T06:00:56.349Z,101101.16
2024-05-09T06:01:57.305Z,101099.69
2024-05-09T06:02:58.251Z,101097.72
2024-05-09T06:04:00.766Z,101097.28
2024-05-09T06:05:02.064Z,101100.66
2024-05-09T06:06:03.067Z,101097.44
2024-05-09T06:07:04.233Z,101099.78
2024-05-09T06:08:05.528Z,101096.56
2024-05-09T06:09:06.443Z,101098.03
2024-05-09T06:10:14.232Z,101090.97
2024-05-09T06:11:21.992Z,101097.13
2024-05-09T06:12:23.152Z,101099.66
2024-05-09T06:13:24.092Z,101093.69
2024-05-09T06:14:24.989Z,101095.78
2024-05-09T06:15:26.231Z,101098.53
2024-05-09T06:16:27.081Z,101094.47
2024-05-09T06:17:28.084Z,101100.63
2024-05-09T06:18:29.303Z,101105.50
2024-05-09T06:19:30.474Z,101104.19
2024-05-09T06:20:35.972Z,101106.13
2024-05-09T06:21:38.844Z,101098.81
2024-05-09T06:22:39.679Z,101094.13
2024-05-09T06:23:46.699Z,101100.91
2024-05-09T06:24:47.621Z,101101.94
2024-05-09T06:25:48.545Z,101093.38
2024-05-09T06:26:49.445Z,101097.00
2024-05-09T06:27:50.309Z,101100.16
2024-05-09T06:28:51.223Z,101099.94
2024-05-09T06:29:52.094Z,101093.31
2024-05-09T06:30:52.974Z,101100.97
2024-05-09T06:31:55.422Z,101091.56
2024-05-09T06:32:57.569Z,101098.81
2024-05-09T06:33:58.686Z,101096.88
2024-05-09T06:34:59.599Z,101088.72
2024-05-09T06:36:00.457Z,101094.19
2024-05-09T06:37:01.288Z,101098.44
2024-05-09T06:38:02.497Z,101091.81
2024-05-09T06:39:03.606Z,101097.34
2024-05-09T06:40:07.186Z,101093.50
2024-05-09T06:41:08.265Z,101091.97
2024-05-09T06:42:09.104Z,101095.59
2024-05-09T06:43:13.673Z,101100.91
2024-05-09T06:44:14.712Z,101100.91
2024-05-09T06:45:15.554Z,101098.53
2024-05-09T06:46:16.378Z,101112.78
2024-05-09T06:47:17.292Z,101108.72
2024-05-09T06:48:18.801Z,101103.19
2024-05-09T06:49:20.277Z,101110.19
2024-05-09T06:50:28.187Z,101107.19
2024-05-09T06:51:35.420Z,101115.28
2024-05-09T06:52:36.276Z,101114.81
2024-05-09T06:53:38.401Z,101111.66
2024-05-09T06:54:39.243Z,101109.28
2024-05-09T06:55:40.126Z,101110.13
2024-05-09T06:56:41.028Z,101109.44
2024-05-09T06:57:43.155Z,101108.81
2024-05-09T06:58:44.121Z,101120.06
2024-05-09T06:59:45.025Z,101114.75
2024-05-09T07:00:45.926Z,101108.59
2024-05-09T07:01:46.788Z,101109.34
2024-05-09T07:02:47.980Z,101108.03
2024-05-09T07:03:49.005Z,101117.44
2024-05-09T07:04:49.945Z,101109.97
2024-05-09T07:05:50.896Z,101112.66
2024-05-09T07:06:51.758Z,101107.56
2024-05-09T07:07:52.656Z,101113.75
2024-05-09T07:08:53.622Z,101111.13
2024-05-09T07:09:54.468Z,101113.66
2024-05-09T07:10:55.583Z,101115.13
2024-05-09T07:11:56.723Z,101116.81
2024-05-09T07:12:57.620Z,101118.28
2024-05-09T07:13:58.564Z,101117.44
2024-05-09T07:14:59.450Z,101117.81
2024-05-09T07:16:00.292Z,101115.75
2024-05-09T07:17:01.313Z,101119.50
2024-05-09T07:18:09.516Z,101113.72
2024-05-09T07:19:10.689Z,101111.78
2024-05-09T07:20:19.479Z,101115.88
2024-05-09T07:21:24.284Z,101117.81
2024-05-09T07:22:27.463Z,101113.97
2024-05-09T07:23:28.415Z,101114.56
2024-05-09T07:24:29.277Z,101115.88
2024-05-09T07:25:30.462Z,101117.19
2024-05-09T07:26:31.597Z,101122.22
2024-05-09T07:27:33.252Z,101121.81
2024-05-09T07:28:34.088Z,101116.50
2024-05-09T07:29:38.367Z,101121.59
2024-05-09T07:30:39.806Z,101121.13
2024-05-09T07:31:40.660Z,101114.25
2024-05-09T07:32:43.831Z,101118.25
2024-05-09T07:33:44.939Z,101122.72
2024-05-09T07:34:45.894Z,101116.09
2024-05-09T07:35:46.793Z,101122.50
2024-05-09T07:36:48.523Z,101120.09
2024-05-09T07:37:49.403Z,101116.47
2024-05-09T07:38:50.299Z,101125.19
2024-05-09T07:39:51.213Z,101114.91
2024-05-09T07:40:52.117Z,101114.22
2024-05-09T07:41:54.183Z,101119.53
2024-05-09T07:42:55.026Z,101117.75
2024-05-09T07:43:55.888Z,101124.53
2024-05-09T07:45:00.986Z,101122.22
2024-05-09T07:47:14.031Z,101125.63
2024-05-09T07:48:57.510Z,101125.50
2024-05-09T07:51:32.967Z,101119.00
2024-05-09T07:53:30.109Z,101125.97
2024-05-09T07:53:46.160Z,101117.53
2024-05-09T07:54:50.611Z,101118.38
2024-05-09T07:55:51.687Z,101116.56
2024-05-09T07:56:52.958Z,101122.75
2024-05-09T07:57:54.081Z,101117.06
2024-05-09T07:58:54.958Z,101113.19
2024-05-09T07:59:55.811Z,101123.25
2024-05-09T08:00:56.799Z,101123.84
2024-05-09T08:01:57.834Z,101129.91
2024-05-09T08:02:58.768Z,101127.97
2024-05-09T08:03:59.740Z,101129.44
2024-05-09T08:05:00.846Z,101124.94
2024-05-09T08:06:01.758Z,101123.50
2024-05-09T08:07:02.700Z,101133.06
2024-05-09T08:08:03.804Z,101133.19
2024-05-09T08:09:08.224Z,101128.84
2024-05-09T08:10:21.958Z,101125.81
2024-05-09T08:11:25.663Z,101121.94
2024-05-09T08:12:26.556Z,101119.53
2024-05-09T08:13:27.428Z,101129.94
2024-05-09T08:14:28.275Z,101124.97
2024-05-09T08:15:29.393Z,101132.84
2024-05-09T08:16:30.352Z,101129.81
2024-05-09T08:17:31.296Z,101137.94
2024-05-09T08:18:32.508Z,101138.53
2024-05-09T08:19:35.324Z,101134.66
2024-05-09T08:20:37.028Z,101141.69
2024-05-09T08:21:37.883Z,101136.34
2024-05-09T08:22:38.765Z,101143.13
2024-05-09T08:23:39.631Z,101136.47
2024-05-09T08:24:41.480Z,101135.63
2024-05-09T08:25:42.538Z,101136.47
2024-05-09T08:26:43.381Z,101141.31
2024-05-09T08:27:45.000Z,101130.19
2024-05-09T08:28:46.066Z,101132.47
2024-05-09T08:29:46.937Z,101141.94
2024-05-09T08:30:47.979Z,101135.28
2024-05-09T08:31:48.951Z,101142.78
2024-05-09T08:32:49.872Z,101146.16
2024-05-09T08:33:54.153Z,101141.06
2024-05-09T08:34:55.142Z,101142.78
2024-05-09T08:35:55.990Z,101142.28
2024-05-09T08:36:59.528Z,101134.53
2024-05-09T08:38:03.224Z,101126.06
2024-05-09T08:39:04.215Z,101126.91
2024-05-09T08:40:08.482Z,101136.97
2024-05-09T08:41:12.514Z,101136.97
2024-05-09T08:42:14.157Z,101141.94
2024-05-09T08:43:15.159Z,101141.31
2024-05-09T08:44:19.822Z,101132.72
2024-05-09T08:45:20.938Z,101129.22
2024-05-09T08:46:21.899Z,101128.63
2024-05-09T08:47:27.694Z,101139.25
2024-05-09T08:48:28.763Z,101139.66
2024-05-09T08:49:29.886Z,101137.22
2024-05-09T08:50:37.884Z,101142.56
2024-05-09T08:51:40.759Z,101132.50
2024-05-09T08:52:41.631Z,101136.13
2024-05-09T08:53:42.461Z,101128.13
2024-05-09T08:54:43.936Z,101132.59
2024-05-09T08:55:45.098Z,101131.13
2024-05-09T08:56:45.970Z,101132.03
2024-05-09T08:57:46.861Z,101128.38
2024-05-09T08:58:50.866Z,101133.81
2024-05-09T08:59:51.785Z,101130.50
2024-05-09T09:00:52.821Z,101137.97
2024-05-09T09:01:53.892Z,101140.25
2024-05-09T09:02:54.871Z,101135.28
2024-05-09T09:04:02.899Z,101136.63
2024-05-09T09:05:10.155Z,101139.75
2024-05-09T09:06:13.368Z,101144.25
2024-05-09T09:07:14.252Z,101148.88
2024-05-09T09:08:15.177Z,101145.25
2024-05-09T09:09:16.013Z,101146.72
2024-05-09T09:10:29.145Z,101138.88
2024-05-09T09:11:32.667Z,101142.13
2024-05-09T09:12:34.026Z,101136.78
2024-05-09T09:13:34.961Z,101136.19
2024-05-09T09:14:35.811Z,101136.94
2024-05-09T09:15:48.946Z,101133.19
2024-05-09T09:16:50.767Z,101133.19
2024-05-09T09:17:58.167Z,101130.06
2024-05-09T09:18:59.232Z,101137.44
2024-05-09T09:20:00.613Z,101134.06
2024-05-09T09:21:02.000Z,101132.34
2024-05-09T09:22:02.930Z,101134.28
2024-05-09T09:23:04.334Z,101132.72
2024-05-09T09:24:09.760Z,101135.59
2024-05-09T09:25:10.903Z,101137.63
2024-05-09T09:26:15.645Z,101135.44
2024-05-09T09:27:16.513Z,101132.97
2024-05-09T09:28:17.533Z,101137.31
2024-05-09T09:29:19.592Z,101133.97
2024-05-09T09:30:31.835Z,101135.41
2024-05-09T09:31:38.204Z,101135.50
2024-05-09T09:32:39.104Z,101123.63
2024-05-09T09:33:45.702Z,101125.25
2024-05-09T09:34:46.906Z,101116.53
2024-05-09T09:35:47.790Z,101124.34
2024-05-09T09:36:48.650Z,101125.66
2024-05-09T09:37:49.901Z,101127.38
2024-05-09T09:38:50.939Z,101118.47
2024-05-09T09:39:51.915Z,101129.31
2024-05-09T09:40:52.836Z,101125.19
2024-05-09T09:41:55.034Z,101124.72
2024-05-09T09:42:56.639Z,101130.94
2024-05-09T09:43:57.519Z,101128.53
2024-05-09T09:45:04.665Z,101129.97
2024-05-09T09:46:08.615Z,101117.28
2024-05-09T09:47:11.494Z,101124.09
2024-05-09T09:48:13.668Z,101127.66
2024-05-09T09:49:15.928Z,101112.22
2024-05-09T09:50:23.850Z,101115.91
2024-05-09T09:51:28.935Z,101118.81
2024-05-09T09:52:29.839Z,101111.22
2024-05-09T09:53:33.870Z,101111.84
2024-05-09T09:54:34.718Z,101125.13
2024-05-09T09:55:36.319Z,101112.94
2024-05-09T09:56:37.975Z,101113.41
2024-05-09T09:57:39.159Z,101123.22
2024-05-09T09:58:40.050Z,101115.56
2024-05-09T09:59:42.284Z,101111.88
2024-05-09T10:00:43.641Z,101112.16
2024-05-09T10:01:45.096Z,101111.59
2024-05-09T10:02:46.041Z,101109.09
2024-05-09T10:03:47.090Z,101108.56
2024-05-09T10:04:48.219Z,101110.88
2024-05-09T10:05:49.204Z,101112.56
2024-05-09T10:06:52.213Z,101106.41
2024-05-09T10:07:53.097Z,101100.53
2024-05-09T10:08:53.938Z,101105.84
2024-05-09T10:09:55.402Z,101101.16
2024-05-09T10:10:56.389Z,101100.63
2024-05-09T10:13:07.772Z,101111.00
2024-05-09T10:14:09.019Z,101103.16
2024-05-09T10:15:10.051Z,101105.44
2024-05-09T10:16:11.280Z,101091.13
2024-05-09T10:17:12.332Z,101103.41
2024-05-09T10:18:13.982Z,101096.72
2024-05-09T10:19:27.602Z,101091.97
2024-05-09T10:20:40.703Z,101096.78
2024-05-09T10:21:47.558Z,101101.88
2024-05-09T10:22:49.407Z,101097.97
2024-05-09T10:23:57.652Z,101103.88
2024-05-09T10:25:05.871Z,101096.63
2024-05-09T10:26:06.734Z,101102.25
2024-05-09T10:27:07.620Z,101106.50
2024-05-09T10:28:11.062Z,101102.03
2024-05-09T10:29:15.955Z,101098.66
2024-05-09T10:30:26.142Z,101091.94
2024-05-09T10:31:34.298Z,101097.56
2024-05-09T10:32:38.462Z,101097.56
2024-05-09T10:33:40.622Z,101096.19
2024-05-09T10:34:42.956Z,101095.59
2024-05-09T10:35:50.518Z,101086.06
2024-05-09T10:36:52.153Z,101089.16
2024-05-09T10:37:55.467Z,101098.69
2024-05-09T10:38:56.294Z,101089.97
2024-05-09T10:39:57.347Z,101089.97
2024-05-09T10:41:01.155Z,101086.91
2024-05-09T10:42:02.058Z,101099.25
2024-05-09T10:43:05.828Z,101086.34
2024-05-09T10:44:10.958Z,101097.28
2024-05-09T10:45:12.256Z,101092.81
2024-05-09T10:46:17.638Z,101092.81
2024-05-09T10:47:19.147Z,101093.38
2024-05-09T10:48:20.096Z,101090.84
2024-05-09T10:49:21.105Z,101086.91
2024-05-09T10:50:28.355Z,101084.94
2024-05-09T10:51:32.798Z,101084.69
2024-05-09T10:52:33.651Z,101084.97
2024-05-09T10:53:41.335Z,101095.91
2024-05-09T10:54:42.236Z,101086.06
2024-05-09T10:55:43.089Z,101076.75
2024-05-09T10:56:43.932Z,101088.28
2024-05-09T10:57:44.764Z,101077.28
2024-05-09T10:58:48.582Z,101078.41
2024-05-09T10:59:49.419Z,101071.09
2024-05-09T11:00:50.462Z,101070.84
2024-05-09T11:01:51.487Z,101068.84
2024-05-09T11:02:52.456Z,101071.09
2024-05-09T11:03:53.560Z,101073.31
2024-05-09T11:04:54.710Z,101077.56
2024-05-09T11:05:55.755Z,101077.28
2024-05-09T11:06:56.646Z,101076.41
2024-05-09T11:07:57.737Z,101068.56
2024-05-09T11:08:58.578Z,101074.44
2024-05-09T11:10:00.546Z,101071.94
2024-05-09T11:11:03.605Z,101068.84
2024-05-09T11:12:04.706Z,101063.81
2024-05-09T11:13:05.649Z,101069.75
2024-05-09T11:14:12.554Z,101072.84
2024-05-09T11:15:15.352Z,101065.28
2024-05-09T11:16:19.607Z,101067.53
2024-05-09T11:17:20.887Z,101072.59
2024-05-09T11:18:26.639Z,101074.84
2024-05-09T11:19:36.991Z,101069.25
2024-05-09T11:20:38.082Z,101066.97
2024-05-09T11:21:39.238Z,101070.06
2024-05-09T11:22:40.082Z,101075.97
2024-05-09T11:23:40.911Z,101060.25
2024-05-09T11:24:41.865Z,101068.09
2024-05-09T11:25:55.547Z,101063.63
2024-05-09T11:26:56.964Z,101066.41
2024-05-09T11:28:01.202Z,101061.09
2024-05-09T11:29:02.071Z,101061.66
2024-05-09T11:30:04.230Z,101063.34
2024-05-09T11:31:08.918Z,101055.19
2024-05-09T11:32:12.403Z,101061.94
2024-05-09T11:33:14.150Z,101049.84
2024-05-09T11:34:15.088Z,101054.63
2024-05-09T11:35:15.997Z,101052.38
2024-05-09T11:36:16.839Z,101056.31
2024-05-09T11:37:17.888Z,101051.25
2024-05-09T11:38:18.842Z,101053.50
2024-05-09T11:39:19.680Z,101048.13
2024-05-09T11:40:25.347Z,101053.41
2024-05-09T11:41:30.255Z,101054.25
2024-05-09T11:42:31.200Z,101047.25
2024-05-09T11:43:32.428Z,101051.19
2024-05-09T11:44:33.317Z,101059.03
2024-05-09T11:45:34.379Z,101057.13
2024-05-09T11:46:35.305Z,101053.75
2024-05-09T11:47:37.356Z,101046.19
2024-05-09T11:48:38.451Z,101044.78
2024-05-09T11:49:39.427Z,101051.50
2024-05-09T11:50:40.316Z,101055.72
2024-05-09T11:51:41.280Z,101048.94
2024-05-09T11:52:42.171Z,101041.66
2024-05-09T11:53:43.003Z,101052.59